sensor_id;sensor_type;location;lat;lon;timestamp;temperature;humidity
75321;DHT22;68337;52.196;5.660;2023-08-30T00:00:58;13.10;99.90
75321;DHT22;68337;52.196;5.660;2023-08-30T00:03:23;13.20;99.90
75321;DHT22;68337;52.196;5.660;2023-08-30T00:05:49;13.10;99.90
75321;DHT22;68337;52.196;5.660;2023-08-30T00:08:15;13.10;99.90
75321;DHT22;68337;52.196;5.660;2023-08-30T00:10:48;13.10;99.90
75321;DHT22;68337;52.196;5.660;2023-08-30T00:13:15;13.10;99.90
75321;DHT22;68337;52.196;5.660;2023-08-30T00:15:41;13.20;99.90
75321;DHT22;68337;52.196;5.660;2023-08-30T00:18:06;13.20;99.90
75321;DHT22;68337;52.196;5.660;2023-08-30T00:20:32;13.20;99.90
75321;DHT22;68337;52.196;5.660;2023-08-30T00:23:03;13.20;99.90
75321;DHT22;68337;52.196;5.660;2023-08-30T00:25:30;13.10;99.90
75321;DHT22;68337;52.196;5.660;2023-08-30T00:27:56;13.10;99.90
75321;DHT22;68337;52.196;5.660;2023-08-30T00:30:22;13.00;99.90
75321;DHT22;68337;52.196;5.660;2023-08-30T00:32:47;12.90;99.90
75321;DHT22;68337;52.196;5.660;2023-08-30T00:35:13;12.80;99.90
75321;DHT22;68337;52.196;5.660;2023-08-30T00:37:39;12.70;99.90
75321;DHT22;68337;52.196;5.660;2023-08-30T00:40:06;12.60;99.90
75321;DHT22;68337;52.196;5.660;2023-08-30T00:42:32;12.50;99.90
75321;DHT22;68337;52.196;5.660;2023-08-30T00:44:59;12.50;99.90
75321;DHT22;68337;52.196;5.660;2023-08-30T00:47:25;12.40;99.90
75321;DHT22;68337;52.196;5.660;2023-08-30T00:49:51;12.30;99.90
75321;DHT22;68337;52.196;5.660;2023-08-30T00:52:17;12.20;99.90
75321;DHT22;68337;52.196;5.660;2023-08-30T00:54:43;12.10;99.90
75321;DHT22;68337;52.196;5.660;2023-08-30T00:57:09;12.00;99.90
75321;DHT22;68337;52.196;5.660;2023-08-30T00:59:35;12.00;99.90
75321;DHT22;68337;52.196;5.660;2023-08-30T01:02:02;12.00;99.90
75321;DHT22;68337;52.196;5.660;2023-08-30T01:04:29;11.90;99.90
75321;DHT22;68337;52.196;5.660;2023-08-30T01:06:55;11.80;99.90
75321;DHT22;68337;52.196;5.660;2023-08-30T01:09:23;11.70;99.90
75321;DHT22;68337;52.196;5.660;2023-08-30T01:12:08;11.70;99.90
75321;DHT22;68337;52.196;5.660;2023-08-30T01:14:51;11.70;99.90
75321;DHT22;68337;52.196;5.660;2023-08-30T01:17:19;11.70;99.90
75321;DHT22;68337;52.196;5.660;2023-08-30T01:19:58;11.80;99.90
75321;DHT22;68337;52.196;5.660;2023-08-30T01:22:55;11.80;99.90
75321;DHT22;68337;52.196;5.660;2023-08-30T01:25:43;11.80;99.90
75321;DHT22;68337;52.196;5.660;2023-08-30T01:28:13;11.80;99.90
75321;DHT22;68337;52.196;5.660;2023-08-30T01:30:43;11.90;99.90
75321;DHT22;68337;52.196;5.660;2023-08-30T01:33:11;11.90;99.90
75321;DHT22;68337;52.196;5.660;2023-08-30T01:35:39;11.90;99.90
75321;DHT22;68337;52.196;5.660;2023-08-30T01:38:07;12.00;99.90
75321;DHT22;68337;52.196;5.660;2023-08-30T01:40:38;12.00;99.90
75321;DHT22;68337;52.196;5.660;2023-08-30T01:43:06;12.00;99.90
75321;DHT22;68337;52.196;5.660;2023-08-30T01:45:38;12.10;99.90
75321;DHT22;68337;52.196;5.660;2023-08-30T01:48:07;12.10;99.90
75321;DHT22;68337;52.196;5.660;2023-08-30T01:50:34;12.10;99.90
75321;DHT22;68337;52.196;5.660;2023-08-30T01:53:02;12.10;99.90
75321;DHT22;68337;52.196;5.660;2023-08-30T01:55:29;12.10;99.90
75321;DHT22;68337;52.196;5.660;2023-08-30T01:57:55;12.10;99.90
75321;DHT22;68337;52.196;5.660;2023-08-30T02:00:21;12.20;99.90
75321;DHT22;68337;52.196;5.660;2023-08-30T02:02:48;12.20;99.90
75321;DHT22;68337;52.196;5.660;2023-08-30T02:05:14;12.20;99.90
75321;DHT22;68337;52.196;5.660;2023-08-30T02:10:36;12.20;99.90
75321;DHT22;68337;52.196;5.660;2023-08-30T02:13:04;12.20;99.90
75321;DHT22;68337;52.196;5.660;2023-08-30T02:15:31;12.20;99.90
75321;DHT22;68337;52.196;5.660;2023-08-30T02:17:59;12.20;99.90
75321;DHT22;68337;52.196;5.660;2023-08-30T02:20:25;12.20;99.90
75321;DHT22;68337;52.196;5.660;2023-08-30T02:22:51;12.30;99.90
75321;DHT22;68337;52.196;5.660;2023-08-30T02:25:17;12.30;99.90
75321;DHT22;68337;52.196;5.660;2023-08-30T02:27:43;12.30;99.90
75321;DHT22;68337;52.196;5.660;2023-08-30T02:30:09;12.30;99.90
75321;DHT22;68337;52.196;5.660;2023-08-30T02:32:35;12.30;99.90
75321;DHT22;68337;52.196;5.660;2023-08-30T02:35:02;12.40;99.90
75321;DHT22;68337;52.196;5.660;2023-08-30T02:37:27;12.40;99.90
75321;DHT22;68337;52.196;5.660;2023-08-30T02:39:53;12.40;99.90
75321;DHT22;68337;52.196;5.660;2023-08-30T02:42:19;12.50;99.90
75321;DHT22;68337;52.196;5.660;2023-08-30T02:44:45;12.50;99.90
75321;DHT22;68337;52.196;5.660;2023-08-30T02:47:10;12.60;99.90
75321;DHT22;68337;52.196;5.660;2023-08-30T02:49:36;12.70;99.90
75321;DHT22;68337;52.196;5.660;2023-08-30T02:52:02;12.70;99.90
75321;DHT22;68337;52.196;5.660;2023-08-30T02:54:27;12.70;99.90
75321;DHT22;68337;52.196;5.660;2023-08-30T02:56:53;12.80;99.90
75321;DHT22;68337;52.196;5.660;2023-08-30T02:59:19;12.80;99.90
75321;DHT22;68337;52.196;5.660;2023-08-30T03:01:45;12.80;99.90
75321;DHT22;68337;52.196;5.660;2023-08-30T03:04:10;12.80;99.90
75321;DHT22;68337;52.196;5.660;2023-08-30T03:06:36;12.80;99.90
75321;DHT22;68337;52.196;5.660;2023-08-30T03:09:02;12.90;99.90
75321;DHT22;68337;52.196;5.660;2023-08-30T03:11:28;12.90;99.90
75321;DHT22;68337;52.196;5.660;2023-08-30T03:13:54;12.90;99.90
75321;DHT22;68337;52.196;5.660;2023-08-30T03:16:20;12.90;99.90
75321;DHT22;68337;52.196;5.660;2023-08-30T03:18:47;12.90;99.90
75321;DHT22;68337;52.196;5.660;2023-08-30T03:21:13;12.80;99.90
75321;DHT22;68337;52.196;5.660;2023-08-30T03:23:40;12.90;99.90
75321;DHT22;68337;52.196;5.660;2023-08-30T03:26:14;12.90;99.90
75321;DHT22;68337;52.196;5.660;2023-08-30T03:28:41;12.90;99.90
75321;DHT22;68337;52.196;5.660;2023-08-30T03:31:17;12.90;99.90
75321;DHT22;68337;52.196;5.660;2023-08-30T03:33:44;12.90;99.90
75321;DHT22;68337;52.196;5.660;2023-08-30T03:36:11;12.90;99.90
75321;DHT22;68337;52.196;5.660;2023-08-30T03:38:38;12.90;99.90
75321;DHT22;68337;52.196;5.660;2023-08-30T03:41:04;13.00;99.90
75321;DHT22;68337;52.196;5.660;2023-08-30T03:43:31;13.00;99.90
75321;DHT22;68337;52.196;5.660;2023-08-30T03:45:58;13.00;99.90
75321;DHT22;68337;52.196;5.660;2023-08-30T03:48:24;13.00;99.90
75321;DHT22;68337;52.196;5.660;2023-08-30T03:50:50;13.00;99.90
75321;DHT22;68337;52.196;5.660;2023-08-30T03:53:16;13.00;99.90
75321;DHT22;68337;52.196;5.660;2023-08-30T03:55:43;13.00;99.90
75321;DHT22;68337;52.196;5.660;2023-08-30T03:58:09;13.00;99.90
75321;DHT22;68337;52.196;5.660;2023-08-30T04:00:38;13.00;99.90
75321;DHT22;68337;52.196;5.660;2023-08-30T04:03:08;12.90;99.90
75321;DHT22;68337;52.196;5.660;2023-08-30T04:05:35;12.80;99.90
75321;DHT22;68337;52.196;5.660;2023-08-30T04:08:02;12.80;99.90
75321;DHT22;68337;52.196;5.660;2023-08-30T04:10:27;12.70;99.90
75321;DHT22;68337;52.196;5.660;2023-08-30T04:12:53;12.60;99.90
75321;DHT22;68337;52.196;5.660;2023-08-30T04:15:19;12.50;99.90
75321;DHT22;68337;52.196;5.660;2023-08-30T04:17:45;12.40;99.90
75321;DHT22;68337;52.196;5.660;2023-08-30T04:20:11;12.40;99.90
75321;DHT22;68337;52.196;5.660;2023-08-30T04:22:36;12.30;99.90
75321;DHT22;68337;52.196;5.660;2023-08-30T04:25:03;12.20;99.90
75321;DHT22;68337;52.196;5.660;2023-08-30T04:27:29;12.10;99.90
75321;DHT22;68337;52.196;5.660;2023-08-30T04:29:55;12.00;99.90
75321;DHT22;68337;52.196;5.660;2023-08-30T04:32:21;11.90;99.90
75321;DHT22;68337;52.196;5.660;2023-08-30T04:34:46;11.90;99.90
75321;DHT22;68337;52.196;5.660;2023-08-30T04:37:12;11.90;99.90
75321;DHT22;68337;52.196;5.660;2023-08-30T04:39:39;11.70;99.90
75321;DHT22;68337;52.196;5.660;2023-08-30T04:42:05;11.70;99.90
75321;DHT22;68337;52.196;5.660;2023-08-30T04:44:31;11.60;99.90
75321;DHT22;68337;52.196;5.660;2023-08-30T04:46:57;11.60;99.90
75321;DHT22;68337;52.196;5.660;2023-08-30T04:49:23;11.60;99.90
75321;DHT22;68337;52.196;5.660;2023-08-30T04:51:51;11.50;99.90
75321;DHT22;68337;52.196;5.660;2023-08-30T04:54:16;11.50;99.90
75321;DHT22;68337;52.196;5.660;2023-08-30T04:56:42;11.40;99.90
75321;DHT22;68337;52.196;5.660;2023-08-30T04:59:08;11.40;99.90
75321;DHT22;68337;52.196;5.660;2023-08-30T05:01:34;11.30;99.90
75321;DHT22;68337;52.196;5.660;2023-08-30T05:04:00;11.30;99.90
75321;DHT22;68337;52.196;5.660;2023-08-30T05:06:26;11.30;99.90
75321;DHT22;68337;52.196;5.660;2023-08-30T05:08:52;11.20;99.90
75321;DHT22;68337;52.196;5.660;2023-08-30T05:11:18;11.10;99.90
75321;DHT22;68337;52.196;5.660;2023-08-30T05:13:43;11.10;99.90
75321;DHT22;68337;52.196;5.660;2023-08-30T05:16:09;11.20;99.90
75321;DHT22;68337;52.196;5.660;2023-08-30T05:18:35;11.10;99.90
75321;DHT22;68337;52.196;5.660;2023-08-30T05:21:01;11.20;99.90
75321;DHT22;68337;52.196;5.660;2023-08-30T05:23:29;11.20;99.90
75321;DHT22;68337;52.196;5.660;2023-08-30T05:25:54;11.20;99.90
75321;DHT22;68337;52.196;5.660;2023-08-30T05:28:20;11.20;99.90
75321;DHT22;68337;52.196;5.660;2023-08-30T05:30:46;11.20;99.90
75321;DHT22;68337;52.196;5.660;2023-08-30T05:33:12;11.20;99.90
75321;DHT22;68337;52.196;5.660;2023-08-30T05:35:37;11.20;99.90
75321;DHT22;68337;52.196;5.660;2023-08-30T05:38:03;11.20;99.90
75321;DHT22;68337;52.196;5.660;2023-08-30T05:40:29;11.30;99.90
75321;DHT22;68337;52.196;5.660;2023-08-30T05:42:55;11.30;99.90
75321;DHT22;68337;52.196;5.660;2023-08-30T05:45:21;11.40;99.90
75321;DHT22;68337;52.196;5.660;2023-08-30T05:47:46;11.40;99.90
75321;DHT22;68337;52.196;5.660;2023-08-30T05:50:13;11.40;99.90
75321;DHT22;68337;52.196;5.660;2023-08-30T05:52:39;11.50;99.90
75321;DHT22;68337;52.196;5.660;2023-08-30T05:55:08;11.50;99.90
75321;DHT22;68337;52.196;5.660;2023-08-30T05:57:34;11.60;99.90
75321;DHT22;68337;52.196;5.660;2023-08-30T06:00:01;11.70;99.90
75321;DHT22;68337;52.196;5.660;2023-08-30T06:02:27;11.70;99.90
75321;DHT22;68337;52.196;5.660;2023-08-30T06:04:52;11.80;99.90
75321;DHT22;68337;52.196;5.660;2023-08-30T06:07:18;11.90;99.90
75321;DHT22;68337;52.196;5.660;2023-08-30T06:09:44;12.00;99.90
75321;DHT22;68337;52.196;5.660;2023-08-30T06:12:10;12.20;99.90
75321;DHT22;68337;52.196;5.660;2023-08-30T06:14:36;12.30;99.90
75321;DHT22;68337;52.196;5.660;2023-08-30T06:17:02;12.50;99.90
75321;DHT22;68337;52.196;5.660;2023-08-30T06:19:28;12.60;99.90
75321;DHT22;68337;52.196;5.660;2023-08-30T06:21:53;12.80;99.90
75321;DHT22;68337;52.196;5.660;2023-08-30T06:24:19;13.00;99.90
75321;DHT22;68337;52.196;5.660;2023-08-30T06:26:45;13.10;99.90
75321;DHT22;68337;52.196;5.660;2023-08-30T06:29:10;13.30;99.90
75321;DHT22;68337;52.196;5.660;2023-08-30T06:31:36;13.40;99.90
75321;DHT22;68337;52.196;5.660;2023-08-30T06:34:02;13.50;99.90
75321;DHT22;68337;52.196;5.660;2023-08-30T06:36:28;13.60;99.90
75321;DHT22;68337;52.196;5.660;2023-08-30T06:38:54;13.70;99.90
75321;DHT22;68337;52.196;5.660;2023-08-30T06:41:19;13.70;99.90
75321;DHT22;68337;52.196;5.660;2023-08-30T06:43:45;13.70;99.90
75321;DHT22;68337;52.196;5.660;2023-08-30T06:46:11;13.80;99.90
75321;DHT22;68337;52.196;5.660;2023-08-30T06:48:36;13.80;99.90
75321;DHT22;68337;52.196;5.660;2023-08-30T06:51:02;13.80;99.90
75321;DHT22;68337;52.196;5.660;2023-08-30T06:53:28;13.80;99.90
75321;DHT22;68337;52.196;5.660;2023-08-30T06:56:01;13.90;99.90
75321;DHT22;68337;52.196;5.660;2023-08-30T06:58:27;13.80;99.90
75321;DHT22;68337;52.196;5.660;2023-08-30T07:00:53;13.80;99.90
75321;DHT22;68337;52.196;5.660;2023-08-30T07:03:19;13.80;99.90
75321;DHT22;68337;52.196;5.660;2023-08-30T07:05:45;13.80;99.90
75321;DHT22;68337;52.196;5.660;2023-08-30T07:08:16;13.70;99.90
75321;DHT22;68337;52.196;5.660;2023-08-30T07:10:42;13.60;99.90
75321;DHT22;68337;52.196;5.660;2023-08-30T07:13:08;13.60;99.90
75321;DHT22;68337;52.196;5.660;2023-08-30T07:15:38;13.60;99.90
75321;DHT22;68337;52.196;5.660;2023-08-30T07:18:05;13.50;99.90
75321;DHT22;68337;52.196;5.660;2023-08-30T07:20:31;13.50;99.90
75321;DHT22;68337;52.196;5.660;2023-08-30T07:22:57;13.60;99.90
75321;DHT22;68337;52.196;5.660;2023-08-30T07:25:23;13.50;99.90
75321;DHT22;68337;52.196;5.660;2023-08-30T07:27:49;13.50;99.90
75321;DHT22;68337;52.196;5.660;2023-08-30T07:30:15;13.50;99.90
75321;DHT22;68337;52.196;5.660;2023-08-30T07:32:41;13.50;99.90
75321;DHT22;68337;52.196;5.660;2023-08-30T07:35:07;13.50;99.90
75321;DHT22;68337;52.196;5.660;2023-08-30T07:37:34;13.40;99.90
75321;DHT22;68337;52.196;5.660;2023-08-30T07:40:00;13.50;99.90
75321;DHT22;68337;52.196;5.660;2023-08-30T07:42:26;13.50;99.90
75321;DHT22;68337;52.196;5.660;2023-08-30T07:44:51;13.50;99.90
75321;DHT22;68337;52.196;5.660;2023-08-30T07:47:17;13.50;99.90
75321;DHT22;68337;52.196;5.660;2023-08-30T07:49:43;13.70;99.90
75321;DHT22;68337;52.196;5.660;2023-08-30T07:52:09;13.60;99.90
75321;DHT22;68337;52.196;5.660;2023-08-30T07:54:37;13.60;99.90
75321;DHT22;68337;52.196;5.660;2023-08-30T07:57:03;13.60;99.90
75321;DHT22;68337;52.196;5.660;2023-08-30T07:59:29;13.70;99.90
75321;DHT22;68337;52.196;5.660;2023-08-30T08:01:55;13.80;99.90
75321;DHT22;68337;52.196;5.660;2023-08-30T08:04:21;13.80;99.90
75321;DHT22;68337;52.196;5.660;2023-08-30T08:06:47;13.80;99.90
75321;DHT22;68337;52.196;5.660;2023-08-30T08:09:13;13.90;99.90
75321;DHT22;68337;52.196;5.660;2023-08-30T08:11:38;13.90;99.90
75321;DHT22;68337;52.196;5.660;2023-08-30T08:14:09;13.90;99.90
75321;DHT22;68337;52.196;5.660;2023-08-30T08:16:36;14.00;99.90
75321;DHT22;68337;52.196;5.660;2023-08-30T08:19:02;14.00;99.90
75321;DHT22;68337;52.196;5.660;2023-08-30T08:21:28;14.00;99.90
75321;DHT22;68337;52.196;5.660;2023-08-30T08:23:54;14.00;99.90
75321;DHT22;68337;52.196;5.660;2023-08-30T08:26:19;14.10;99.90
75321;DHT22;68337;52.196;5.660;2023-08-30T08:28:45;14.10;99.90
75321;DHT22;68337;52.196;5.660;2023-08-30T08:31:11;14.10;99.90
75321;DHT22;68337;52.196;5.660;2023-08-30T08:33:36;14.20;99.90
75321;DHT22;68337;52.196;5.660;2023-08-30T08:36:02;14.30;99.90
75321;DHT22;68337;52.196;5.660;2023-08-30T08:38:28;14.30;99.90
75321;DHT22;68337;52.196;5.660;2023-08-30T08:41:01;14.30;99.90
75321;DHT22;68337;52.196;5.660;2023-08-30T08:43:29;14.40;99.90
75321;DHT22;68337;52.196;5.660;2023-08-30T08:46:00;14.50;99.90
75321;DHT22;68337;52.196;5.660;2023-08-30T08:48:28;14.50;99.90
75321;DHT22;68337;52.196;5.660;2023-08-30T08:50:55;14.60;99.90
75321;DHT22;68337;52.196;5.660;2023-08-30T08:53:21;14.70;99.90
75321;DHT22;68337;52.196;5.660;2023-08-30T08:55:48;14.70;99.90
75321;DHT22;68337;52.196;5.660;2023-08-30T08:58:15;14.70;99.90
75321;DHT22;68337;52.196;5.660;2023-08-30T09:00:42;14.70;99.90
75321;DHT22;68337;52.196;5.660;2023-08-30T09:03:08;14.60;99.90
75321;DHT22;68337;52.196;5.660;2023-08-30T09:05:37;14.60;99.90
75321;DHT22;68337;52.196;5.660;2023-08-30T09:08:04;14.60;99.90
75321;DHT22;68337;52.196;5.660;2023-08-30T09:10:33;14.70;99.90
75321;DHT22;68337;52.196;5.660;2023-08-30T09:13:00;14.70;99.90
75321;DHT22;68337;52.196;5.660;2023-08-30T09:15:33;14.60;99.90
75321;DHT22;68337;52.196;5.660;2023-08-30T09:17:59;14.60;99.90
75321;DHT22;68337;52.196;5.660;2023-08-30T09:20:26;14.60;99.90
75321;DHT22;68337;52.196;5.660;2023-08-30T09:22:51;14.60;99.90
75321;DHT22;68337;52.196;5.660;2023-08-30T09:25:25;14.60;99.90
75321;DHT22;68337;52.196;5.660;2023-08-30T09:27:51;14.50;99.90
75321;DHT22;68337;52.196;5.660;2023-08-30T09:30:23;14.50;99.90
75321;DHT22;68337;52.196;5.660;2023-08-30T09:32:50;14.50;99.90
75321;DHT22;68337;52.196;5.660;2023-08-30T09:35:16;14.50;99.90
75321;DHT22;68337;52.196;5.660;2023-08-30T09:37:44;14.50;99.90
75321;DHT22;68337;52.196;5.660;2023-08-30T09:40:11;14.60;99.90
75321;DHT22;68337;52.196;5.660;2023-08-30T09:42:43;14.50;99.90
75321;DHT22;68337;52.196;5.660;2023-08-30T09:45:19;14.60;99.90
75321;DHT22;68337;52.196;5.660;2023-08-30T09:47:51;14.60;99.90
75321;DHT22;68337;52.196;5.660;2023-08-30T09:50:19;14.60;99.90
75321;DHT22;68337;52.196;5.660;2023-08-30T09:52:46;14.60;99.90
75321;DHT22;68337;52.196;5.660;2023-08-30T09:55:15;14.60;99.90
75321;DHT22;68337;52.196;5.660;2023-08-30T09:57:44;14.60;99.90
75321;DHT22;68337;52.196;5.660;2023-08-30T10:00:11;14.70;99.90
75321;DHT22;68337;52.196;5.660;2023-08-30T10:02:41;14.70;99.90
75321;DHT22;68337;52.196;5.660;2023-08-30T10:05:10;14.80;99.90
75321;DHT22;68337;52.196;5.660;2023-08-30T10:07:36;14.70;99.90
75321;DHT22;68337;52.196;5.660;2023-08-30T10:10:03;14.80;99.90
75321;DHT22;68337;52.196;5.660;2023-08-30T10:12:33;14.80;99.90
75321;DHT22;68337;52.196;5.660;2023-08-30T10:14:59;14.90;99.90
75321;DHT22;68337;52.196;5.660;2023-08-30T10:17:31;15.00;99.90
75321;DHT22;68337;52.196;5.660;2023-08-30T10:19:58;15.10;99.90
75321;DHT22;68337;52.196;5.660;2023-08-30T10:22:25;15.20;99.90
75321;DHT22;68337;52.196;5.660;2023-08-30T10:24:57;15.20;99.90
75321;DHT22;68337;52.196;5.660;2023-08-30T10:27:24;15.20;99.90
75321;DHT22;68337;52.196;5.660;2023-08-30T10:29:52;15.30;99.90
75321;DHT22;68337;52.196;5.660;2023-08-30T10:32:22;15.30;99.90
75321;DHT22;68337;52.196;5.660;2023-08-30T10:34:49;15.30;99.90
75321;DHT22;68337;52.196;5.660;2023-08-30T10:37:15;15.30;99.90
75321;DHT22;68337;52.196;5.660;2023-08-30T10:39:42;15.40;99.90
75321;DHT22;68337;52.196;5.660;2023-08-30T10:42:13;15.40;99.90
75321;DHT22;68337;52.196;5.660;2023-08-30T10:44:52;15.40;99.90
75321;DHT22;68337;52.196;5.660;2023-08-30T10:47:26;15.40;99.90
75321;DHT22;68337;52.196;5.660;2023-08-30T10:49:57;15.40;99.90
75321;DHT22;68337;52.196;5.660;2023-08-30T10:52:25;15.40;99.90
75321;DHT22;68337;52.196;5.660;2023-08-30T10:54:51;15.40;99.90
75321;DHT22;68337;52.196;5.660;2023-08-30T10:57:24;15.50;99.90
75321;DHT22;68337;52.196;5.660;2023-08-30T11:00:11;15.70;99.90
75321;DHT22;68337;52.196;5.660;2023-08-30T11:02:38;16.10;99.90
75321;DHT22;68337;52.196;5.660;2023-08-30T11:05:08;16.60;99.90
75321;DHT22;68337;52.196;5.660;2023-08-30T11:07:33;17.40;99.90
75321;DHT22;68337;52.196;5.660;2023-08-30T11:09:59;17.90;99.90
75321;DHT22;68337;52.196;5.660;2023-08-30T11:12:25;18.30;99.90
75321;DHT22;68337;52.196;5.660;2023-08-30T11:14:54;18.60;99.90
75321;DHT22;68337;52.196;5.660;2023-08-30T11:17:20;18.90;99.90
75321;DHT22;68337;52.196;5.660;2023-08-30T11:19:49;19.30;99.90
75321;DHT22;68337;52.196;5.660;2023-08-30T11:22:15;19.40;99.90
75321;DHT22;68337;52.196;5.660;2023-08-30T11:24:45;19.50;99.90
75321;DHT22;68337;52.196;5.660;2023-08-30T11:27:16;19.90;99.90
75321;DHT22;68337;52.196;5.660;2023-08-30T11:29:43;20.00;99.90
75321;DHT22;68337;52.196;5.660;2023-08-30T11:32:09;19.80;99.90
75321;DHT22;68337;52.196;5.660;2023-08-30T11:34:35;19.90;99.90
75321;DHT22;68337;52.196;5.660;2023-08-30T11:37:00;20.10;99.90
75321;DHT22;68337;52.196;5.660;2023-08-30T11:39:28;19.80;99.90
75321;DHT22;68337;52.196;5.660;2023-08-30T11:41:54;20.20;99.90
75321;DHT22;68337;52.196;5.660;2023-08-30T11:44:23;20.00;99.90
75321;DHT22;68337;52.196;5.660;2023-08-30T11:46:49;19.50;99.90
75321;DHT22;68337;52.196;5.660;2023-08-30T11:49:18;19.40;99.90
75321;DHT22;68337;52.196;5.660;2023-08-30T11:51:44;19.20;99.90
75321;DHT22;68337;52.196;5.660;2023-08-30T11:54:16;18.90;99.90
75321;DHT22;68337;52.196;5.660;2023-08-30T11:56:43;18.80;99.90
75321;DHT22;68337;52.196;5.660;2023-08-30T11:59:21;19.40;99.90
75321;DHT22;68337;52.196;5.660;2023-08-30T12:01:48;19.90;99.90
75321;DHT22;68337;52.196;5.660;2023-08-30T12:04:15;19.70;99.90
75321;DHT22;68337;52.196;5.660;2023-08-30T12:06:41;19.50;99.90
75321;DHT22;68337;52.196;5.660;2023-08-30T12:09:12;19.90;99.90
75321;DHT22;68337;52.196;5.660;2023-08-30T12:11:38;20.20;99.90
75321;DHT22;68337;52.196;5.660;2023-08-30T12:14:03;20.20;99.90
75321;DHT22;68337;52.196;5.660;2023-08-30T12:16:30;20.40;99.90
75321;DHT22;68337;52.196;5.660;2023-08-30T12:18:56;20.50;99.90
75321;DHT22;68337;52.196;5.660;2023-08-30T12:21:23;20.40;99.90
75321;DHT22;68337;52.196;5.660;2023-08-30T12:23:59;19.90;99.90
75321;DHT22;68337;52.196;5.660;2023-08-30T12:26:31;19.60;99.90
75321;DHT22;68337;52.196;5.660;2023-08-30T12:28:58;19.70;99.90
75321;DHT22;68337;52.196;5.660;2023-08-30T12:31:24;19.80;99.90
75321;DHT22;68337;52.196;5.660;2023-08-30T12:33:50;20.50;99.90
75321;DHT22;68337;52.196;5.660;2023-08-30T12:36:15;20.90;99.90
75321;DHT22;68337;52.196;5.660;2023-08-30T12:38:41;20.50;99.90
75321;DHT22;68337;52.196;5.660;2023-08-30T12:41:07;20.30;99.90
75321;DHT22;68337;52.196;5.660;2023-08-30T12:43:33;20.00;99.90
75321;DHT22;68337;52.196;5.660;2023-08-30T12:45:58;20.00;99.90
75321;DHT22;68337;52.196;5.660;2023-08-30T12:48:24;19.70;99.90
75321;DHT22;68337;52.196;5.660;2023-08-30T12:50:50;19.40;99.90
75321;DHT22;68337;52.196;5.660;2023-08-30T12:53:16;19.40;99.90
75321;DHT22;68337;52.196;5.660;2023-08-30T12:55:42;19.90;99.90
75321;DHT22;68337;52.196;5.660;2023-08-30T12:58:08;20.40;99.90
75321;DHT22;68337;52.196;5.660;2023-08-30T13:00:35;20.90;99.90
75321;DHT22;68337;52.196;5.660;2023-08-30T13:03:01;21.30;99.90
75321;DHT22;68337;52.196;5.660;2023-08-30T13:05:29;22.00;99.90
75321;DHT22;68337;52.196;5.660;2023-08-30T13:07:56;21.70;99.90
75321;DHT22;68337;52.196;5.660;2023-08-30T13:10:21;21.90;99.90
75321;DHT22;68337;52.196;5.660;2023-08-30T13:12:47;21.50;99.90
75321;DHT22;68337;52.196;5.660;2023-08-30T13:15:13;21.50;99.90
75321;DHT22;68337;52.196;5.660;2023-08-30T13:17:39;20.90;99.90
75321;DHT22;68337;52.196;5.660;2023-08-30T13:20:05;20.60;99.90
75321;DHT22;68337;52.196;5.660;2023-08-30T13:22:31;20.50;99.90
75321;DHT22;68337;52.196;5.660;2023-08-30T13:24:56;20.90;99.90
75321;DHT22;68337;52.196;5.660;2023-08-30T13:27:22;21.30;99.90
75321;DHT22;68337;52.196;5.660;2023-08-30T13:29:48;21.50;99.90
75321;DHT22;68337;52.196;5.660;2023-08-30T13:32:14;21.20;99.90
75321;DHT22;68337;52.196;5.660;2023-08-30T13:34:40;20.90;99.90
75321;DHT22;68337;52.196;5.660;2023-08-30T13:37:13;20.60;99.90
75321;DHT22;68337;52.196;5.660;2023-08-30T13:39:39;20.30;99.90
75321;DHT22;68337;52.196;5.660;2023-08-30T13:42:05;20.20;99.90
75321;DHT22;68337;52.196;5.660;2023-08-30T13:44:31;20.10;99.90
75321;DHT22;68337;52.196;5.660;2023-08-30T13:47:06;20.50;99.90
75321;DHT22;68337;52.196;5.660;2023-08-30T13:49:32;21.10;99.90
75321;DHT22;68337;52.196;5.660;2023-08-30T13:51:58;21.10;99.90
75321;DHT22;68337;52.196;5.660;2023-08-30T13:54:24;21.10;99.90
75321;DHT22;68337;52.196;5.660;2023-08-30T13:56:50;20.90;99.90
75321;DHT22;68337;52.196;5.660;2023-08-30T13:59:16;20.60;99.90
75321;DHT22;68337;52.196;5.660;2023-08-30T14:01:42;20.30;99.90
75321;DHT22;68337;52.196;5.660;2023-08-30T14:04:08;20.30;99.90
75321;DHT22;68337;52.196;5.660;2023-08-30T14:06:34;20.10;99.90
75321;DHT22;68337;52.196;5.660;2023-08-30T14:09:01;20.20;99.90
75321;DHT22;68337;52.196;5.660;2023-08-30T14:11:26;20.00;99.90
75321;DHT22;68337;52.196;5.660;2023-08-30T14:13:52;20.30;99.90
75321;DHT22;68337;52.196;5.660;2023-08-30T14:16:18;20.60;99.90
75321;DHT22;68337;52.196;5.660;2023-08-30T14:18:44;20.70;99.90
75321;DHT22;68337;52.196;5.660;2023-08-30T14:21:09;20.40;99.90
75321;DHT22;68337;52.196;5.660;2023-08-30T14:23:35;19.80;99.90
75321;DHT22;68337;52.196;5.660;2023-08-30T14:26:05;19.60;99.90
75321;DHT22;68337;52.196;5.660;2023-08-30T14:28:39;19.60;99.90
75321;DHT22;68337;52.196;5.660;2023-08-30T14:31:11;19.50;99.90
75321;DHT22;68337;52.196;5.660;2023-08-30T14:33:39;19.30;99.90
75321;DHT22;68337;52.196;5.660;2023-08-30T14:36:11;18.90;99.90
75321;DHT22;68337;52.196;5.660;2023-08-30T14:38:37;18.40;99.90
75321;DHT22;68337;52.196;5.660;2023-08-30T14:41:03;18.20;99.90
75321;DHT22;68337;52.196;5.660;2023-08-30T14:43:31;18.10;99.90
75321;DHT22;68337;52.196;5.660;2023-08-30T14:48:27;18.10;99.90
75321;DHT22;68337;52.196;5.660;2023-08-30T14:50:52;18.00;99.90
75321;DHT22;68337;52.196;5.660;2023-08-30T14:53:18;17.80;99.90
75321;DHT22;68337;52.196;5.660;2023-08-30T14:55:44;17.60;99.90
75321;DHT22;68337;52.196;5.660;2023-08-30T14:58:12;17.60;99.90
75321;DHT22;68337;52.196;5.660;2023-08-30T15:00:37;17.10;99.90
75321;DHT22;68337;52.196;5.660;2023-08-30T15:03:03;16.90;99.90
75321;DHT22;68337;52.196;5.660;2023-08-30T15:05:29;16.80;99.90
75321;DHT22;68337;52.196;5.660;2023-08-30T15:07:55;16.80;99.90
75321;DHT22;68337;52.196;5.660;2023-08-30T15:10:21;16.80;99.90
75321;DHT22;68337;52.196;5.660;2023-08-30T15:12:47;16.50;99.90
75321;DHT22;68337;52.196;5.660;2023-08-30T15:15:14;16.40;99.90
75321;DHT22;68337;52.196;5.660;2023-08-30T15:17:40;16.50;99.90
75321;DHT22;68337;52.196;5.660;2023-08-30T15:20:09;16.60;99.90
75321;DHT22;68337;52.196;5.660;2023-08-30T15:22:35;17.20;99.90
75321;DHT22;68337;52.196;5.660;2023-08-30T15:25:01;17.60;99.90
75321;DHT22;68337;52.196;5.660;2023-08-30T15:27:28;17.60;99.90
75321;DHT22;68337;52.196;5.660;2023-08-30T15:29:54;17.70;99.90
75321;DHT22;68337;52.196;5.660;2023-08-30T15:32:22;17.90;99.90
75321;DHT22;68337;52.196;5.660;2023-08-30T15:34:49;18.00;99.90